Time;durP1;ratioP1;P1;durP2;ratioP2;P2;SDS_P1;SDS_P2;PMS_P1;PMS_P2;Temp;Humidity;BMP_temperature;BMP_pressure;BME280_temperature;BME280_humidity;BME280_pressure;Samples;Min_cycle;Max_cycle;Signal;HPM_P1;HPM_P2
2023/06/13 00:02:28;;;;;;;9.85;5.15;;;;;;;15.46;100.00;94111.22;5094772;28;20252;-72
2023/06/13 00:04:55;;;;;;;6.88;4.95;;;;;;;15.54;100.00;94112.91;5091974;28;20202;-73
2023/06/13 00:07:22;;;;;;;9.95;5.03;;;;;;;15.68;100.00;94106.06;5104680;28;20574;-74
2023/06/13 00:09:49;;;;;;;8.70;5.07;;;;;;;15.74;100.00;94101.81;5100804;28;20256;-73
2023/06/13 00:12:19;;;;;;;6.78;4.65;;;;;;;15.82;100.00;94107.00;5092310;28;20191;-74
2023/06/13 00:14:50;;;;;;;8.07;4.80;;;;;;;15.89;100.00;94100.81;5094219;28;20229;-74
2023/06/13 00:17:17;;;;;;;7.45;4.88;;;;;;;15.82;100.00;94096.09;5101398;28;20222;-73
2023/06/13 00:19:45;;;;;;;6.05;5.07;;;;;;;15.94;100.00;94087.63;5094523;28;20217;-73
2023/06/13 00:22:14;;;;;;;5.57;4.60;;;;;;;16.01;100.00;94095.09;5110298;28;20251;-73
2023/06/13 00:24:41;;;;;;;5.60;4.50;;;;;;;16.00;100.00;94090.78;5102864;28;20725;-73
2023/06/13 00:27:07;;;;;;;5.32;4.45;;;;;;;15.98;100.00;94090.41;5097049;28;20255;-73
2023/06/13 00:29:35;;;;;;;9.43;4.68;;;;;;;16.02;100.00;94091.22;5093552;28;20272;-73
2023/06/13 00:32:02;;;;;;;8.82;5.28;;;;;;;16.05;100.00;94087.72;5094554;28;20194;-73
2023/06/13 00:34:29;;;;;;;8.07;4.68;;;;;;;16.10;100.00;94089.34;5104732;28;20248;-73
2023/06/13 00:36:56;;;;;;;8.82;4.68;;;;;;;16.10;100.00;94097.53;5091061;28;20202;-73
2023/06/13 00:39:23;;;;;;;8.07;4.78;;;;;;;16.05;100.00;94097.88;5093047;28;20829;-73
2023/06/13 00:41:53;;;;;;;6.60;4.35;;;;;;;16.10;100.00;94101.06;5096419;28;20252;-73
2023/06/13 00:44:19;;;;;;;5.55;4.43;;;;;;;16.05;100.00;94092.41;5105164;28;20243;-73
2023/06/13 00:46:48;;;;;;;7.28;4.20;;;;;;;16.01;100.00;94092.38;5108940;28;20610;-73
2023/06/13 00:49:16;;;;;;;7.18;4.45;;;;;;;16.05;100.00;94095.94;5103204;28;20727;-74
2023/06/13 00:51:44;;;;;;;7.60;4.80;;;;;;;16.10;100.00;94094.81;5090408;28;20202;-73
2023/06/13 00:54:15;;;;;;;9.05;4.35;;;;;;;16.12;100.00;94104.22;5108167;28;20729;-74
2023/06/13 00:56:44;;;;;;;7.07;4.68;;;;;;;16.09;100.00;94085.81;5110365;28;20300;-75
2023/06/13 00:59:13;;;;;;;6.53;4.65;;;;;;;16.09;100.00;94087.78;5100278;28;20256;-75
2023/06/13 01:01:40;;;;;;;6.43;4.40;;;;;;;16.06;100.00;94089.31;5100984;28;20660;-74
2023/06/13 01:04:09;;;;;;;5.72;4.82;;;;;;;15.96;100.00;94079.06;5103106;28;20618;-74
2023/06/13 01:06:40;;;;;;;5.47;4.80;;;;;;;15.95;100.00;94089.19;5094347;28;20202;-74
2023/06/13 01:09:08;;;;;;;5.07;4.22;;;;;;;15.96;100.00;94079.06;5102334;28;20190;-74
2023/06/13 01:11:44;;;;;;;6.38;4.43;;;;;;;16.03;100.00;94078.34;5104091;28;20355;-73
2023/06/13 01:14:20;;;;;;;6.18;4.65;;;;;;;15.99;100.00;94084.53;5108953;28;20194;-73
2023/06/13 01:16:54;;;;;;;6.50;4.65;;;;;;;15.99;100.00;94089.22;5101114;28;20221;-73
2023/06/13 01:19:34;;;;;;;6.05;4.75;;;;;;;15.90;100.00;94086.78;5095540;28;20718;-73
2023/06/13 01:22:04;;;;;;;6.10;4.60;;;;;;;15.82;100.00;94073.44;5097812;28;20204;-73
2023/06/13 01:24:42;;;;;;;10.13;4.53;;;;;;;15.81;100.00;94080.06;5104911;28;20658;-73
2023/06/13 01:27:13;;;;;;;7.13;4.20;;;;;;;15.80;100.00;94086.69;5097275;28;20243;-73
2023/06/13 01:29:42;;;;;;;11.90;4.10;;;;;;;15.54;100.00;94090.25;5092757;28;20216;-72
2023/06/13 01:32:10;;;;;;;6.53;4.20;;;;;;;15.42;100.00;94088.56;5089361;28;20208;-73
2023/06/13 01:34:37;;;;;;;11.32;5.55;;;;;;;15.44;100.00;94090.94;5095977;28;20284;-73
2023/06/13 01:37:04;;;;;;;11.35;5.38;;;;;;;15.54;100.00;94099.25;5097350;28;20701;-72
2023/06/13 01:39:34;;;;;;;5.97;4.50;;;;;;;15.46;100.00;94099.50;5102296;28;20234;-72
2023/06/13 01:42:00;;;;;;;9.65;5.20;;;;;;;15.41;100.00;94097.13;5102999;28;20741;-73
2023/06/13 01:44:30;;;;;;;6.35;4.72;;;;;;;15.37;100.00;94091.59;5094059;28;20247;-73
2023/06/13 01:47:06;;;;;;;8.45;5.05;;;;;;;15.30;100.00;94099.72;5089770;28;20206;-74
2023/06/13 01:49:45;;;;;;;6.90;4.88;;;;;;;15.26;100.00;94091.47;5089786;28;20190;-73
2023/06/13 01:52:19;;;;;;;10.85;5.32;;;;;;;15.28;100.00;94097.34;5101758;28;20262;-73
2023/06/13 01:54:50;;;;;;;6.95;4.43;;;;;;;15.23;100.00;94091.44;5108180;28;20193;-72
2023/06/13 01:57:24;;;;;;;9.02;4.80;;;;;;;15.19;100.00;94096.03;5094368;28;20636;-72
2023/06/13 01:59:55;;;;;;;7.75;4.70;;;;;;;15.05;100.00;94091.19;5089773;28;20289;-72
2023/06/13 02:02:23;;;;;;;6.18;4.78;;;;;;;15.07;100.00;94094.31;5096954;28;20198;-73
2023/06/13 02:04:50;;;;;;;9.10;4.57;;;;;;;14.99;100.00;94100.84;5096244;28;20202;-73
2023/06/13 02:07:17;;;;;;;8.07;5.05;;;;;;;14.87;100.00;94087.44;5102027;28;20214;-73
2023/06/13 02:09:43;;;;;;;8.40;4.55;;;;;;;14.84;100.00;94091.69;5103006;28;20259;-73
2023/06/13 02:12:11;;;;;;;6.68;4.43;;;;;;;14.78;100.00;94087.69;5097189;28;20544;-74
2023/06/13 02:14:39;;;;;;;5.70;4.97;;;;;;;14.78;100.00;94087.69;5096106;28;20210;-74
2023/06/13 02:17:07;;;;;;;7.90;5.03;;;;;;;14.67;100.00;94083.22;5093076;28;20198;-74
2023/06/13 02:19:34;;;;;;;6.60;4.78;;;;;;;14.63;100.00;94085.09;5101027;28;20704;-75
2023/06/13 02:22:01;;;;;;;6.97;4.97;;;;;;;14.60;100.00;94081.19;5108864;28;20558;-74
2023/06/13 02:24:28;;;;;;;8.27;4.90;;;;;;;14.69;100.00;94081.69;5103871;28;20197;-75
2023/06/13 02:26:54;;;;;;;9.63;5.15;;;;;;;14.66;100.00;94090.59;5095677;28;20541;-75
2023/06/13 02:29:21;;;;;;;5.78;4.65;;;;;;;14.61;100.00;94081.97;5092318;28;20334;-74
2023/06/13 02:31:48;;;;;;;13.02;4.82;;;;;;;14.70;100.00;94088.72;5095422;28;20274;-74
2023/06/13 02:34:16;;;;;;;6.20;4.00;;;;;;;14.71;100.00;94093.03;5106483;28;20197;-73
2023/06/13 02:36:43;;;;;;;6.00;4.50;;;;;;;14.71;100.00;94097.69;5093256;28;20202;-73
2023/06/13 02:39:11;;;;;;;9.75;4.68;;;;;;;14.76;100.00;94098.16;5095616;28;20761;-73
2023/06/13 02:41:38;;;;;;;10.45;4.70;;;;;;;14.78;100.00;94098.59;5094305;28;20206;-73
2023/06/13 02:44:05;;;;;;;8.18;4.50;;;;;;;14.64;100.00;94098.38;5100577;28;20270;-73
2023/06/13 02:46:32;;;;;;;12.80;4.88;;;;;;;14.64;100.00;94103.81;5107121;28;20197;-73
2023/06/13 02:48:58;;;;;;;10.07;4.45;;;;;;;14.65;100.00;94099.16;5105076;28;20533;-73
2023/06/13 03:00:38;;;;;;;8.27;4.47;;;;;;;14.66;100.00;94109.69;4981013;28;20228;-82
2023/06/13 03:03:05;;;;;;;7.18;4.15;;;;;;;14.79;100.00;94115.72;4987500;28;20260;-81
2023/06/13 03:05:32;;;;;;;5.45;4.35;;;;;;;14.85;100.00;94109.63;4984845;28;20209;-81
2023/06/13 03:08:00;;;;;;;6.82;4.90;;;;;;;14.93;100.00;94105.81;4985133;28;20209;-81
2023/06/13 03:10:26;;;;;;;8.48;5.20;;;;;;;15.13;100.00;94113.91;4986224;28;20253;-80
2023/06/13 03:12:53;;;;;;;7.30;4.95;;;;;;;15.32;100.00;94105.56;4984208;28;20212;-81
2023/06/13 03:15:20;;;;;;;15.23;7.88;;;;;;;15.39;100.00;94116.59;4983690;28;20217;-82
2023/06/13 03:17:48;;;;;;;8.65;5.68;;;;;;;15.54;100.00;94117.56;4986625;28;20206;-82
2023/06/13 03:20:16;;;;;;;6.93;4.97;;;;;;;15.69;100.00;94119.34;4980406;28;20611;-81
2023/06/13 03:22:42;;;;;;;9.07;5.13;;;;;;;15.80;100.00;94114.00;4986497;28;20237;-82
2023/06/13 03:25:10;;;;;;;8.13;4.82;;;;;;;16.06;100.00;94111.16;4986530;28;20194;-82
2023/06/13 03:27:37;;;;;;;6.80;4.40;;;;;;;16.32;100.00;94107.50;4986225;28;20664;-82
2023/06/13 03:30:05;;;;;;;5.90;3.97;;;;;;;16.47;100.00;94113.91;4986243;28;20198;-82
2023/06/13 03:32:32;;;;;;;6.38;4.50;;;;;;;16.57;100.00;94102.25;4986833;28;20479;-82
2023/06/13 03:35:00;;;;;;;5.35;4.20;;;;;;;16.85;99.06;94096.25;4986525;28;20279;-82
2023/06/13 03:37:26;;;;;;;6.72;4.38;;;;;;;17.36;96.01;94104.38;4986287;28;20242;-81
2023/06/13 03:39:53;;;;;;;7.50;4.22;;;;;;;17.61;94.98;94110.78;4985993;28;20277;-82
2023/06/13 03:42:20;;;;;;;5.65;4.40;;;;;;;17.73;92.13;94115.16;4986472;28;20198;-82
2023/06/13 03:44:48;;;;;;;5.28;4.07;;;;;;;17.67;92.22;94114.75;4985869;28;20219;-82
2023/06/13 03:47:15;;;;;;;5.95;5.15;;;;;;;17.61;92.65;94113.53;4986063;28;20213;-82
2023/06/13 03:49:43;;;;;;;5.72;5.10;;;;;;;17.61;92.87;94112.75;4985843;28;20614;-82
2023/06/13 03:52:11;;;;;;;6.90;4.50;;;;;;;17.42;92.69;94108.34;4985884;28;20194;-82
2023/06/13 03:54:38;;;;;;;6.35;4.90;;;;;;;17.31;93.76;94111.03;4985936;28;20198;-82
2023/06/13 03:57:06;;;;;;;11.32;4.57;;;;;;;17.49;94.26;94115.81;4984999;28;20230;-82
2023/06/13 03:59:35;;;;;;;7.75;4.45;;;;;;;17.84;93.61;94121.47;4985437;28;20237;-82
2023/06/13 04:02:01;;;;;;;7.40;4.55;;;;;;;18.16;91.30;94118.06;4985866;28;20735;-82
2023/06/13 04:04:28;;;;;;;5.88;4.65;;;;;;;18.16;89.61;94113.34;4986048;28;20194;-82
2023/06/13 04:06:55;;;;;;;6.43;4.45;;;;;;;17.97;91.10;94121.91;4984774;28;20704;-82
2023/06/13 04:09:23;;;;;;;11.07;5.93;;;;;;;17.84;91.54;94126.16;4971867;28;20293;-83
2023/06/13 04:11:50;;;;;;;8.77;5.45;;;;;;;17.92;91.06;94125.00;4972643;28;20210;-82
2023/06/13 04:14:17;;;;;;;8.77;4.38;;;;;;;17.80;91.09;94123.41;4972989;28;20218;-82
2023/06/13 04:16:44;;;;;;;9.15;5.18;;;;;;;17.67;91.40;94130.41;4970163;28;20700;-83
2023/06/13 04:19:18;;;;;;;6.97;5.75;;;;;;;17.62;92.82;94128.78;4971912;28;20213;-80
2023/06/13 04:21:46;;;;;;;8.57;5.45;;;;;;;17.70;93.54;94135.91;4973036;28;20210;-81
2023/06/13 04:24:14;;;;;;;6.18;4.85;;;;;;;17.71;93.93;94132.00;4972780;28;20214;-80
2023/06/13 04:26:45;;;;;;;5.88;4.93;;;;;;;18.01;92.30;94133.69;4971797;28;20214;-84
2023/06/13 04:29:13;;;;;;;7.32;4.75;;;;;;;18.17;91.25;94131.38;4968452;28;20319;-84
2023/06/13 04:31:40;;;;;;;11.40;5.78;;;;;;;18.37;88.89;94126.31;4964300;28;20226;-81
2023/06/13 04:34:07;;;;;;;7.80;5.30;;;;;;;18.67;88.08;94126.00;4972627;28;20241;-85
2023/06/13 04:36:35;;;;;;;9.40;5.75;;;;;;;18.97;86.68;94137.38;4972861;28;20234;-85
2023/06/13 04:39:04;;;;;;;7.85;5.47;;;;;;;19.08;86.36;94145.59;4972410;28;20550;-83
2023/06/13 04:41:34;;;;;;;9.00;5.25;;;;;;;19.22;84.98;94142.06;4961248;28;20254;-83
2023/06/13 04:44:05;;;;;;;10.68;8.20;;;;;;;19.57;83.97;94139.25;4971545;28;20238;-83
2023/06/13 04:46:33;;;;;;;10.75;7.28;;;;;;;19.96;83.07;94146.59;4972612;28;20202;-82
2023/06/13 04:49:00;;;;;;;10.05;7.07;;;;;;;20.11;82.06;94135.13;4959613;28;20680;-83
2023/06/13 04:51:27;;;;;;;13.43;8.30;;;;;;;20.19;81.29;94141.41;4973505;28;20253;-84
2023/06/13 04:53:57;;;;;;;14.65;7.80;;;;;;;20.39;80.39;94145.25;4972767;28;20210;-84
2023/06/13 04:56:24;;;;;;;11.32;7.57;;;;;;;20.48;80.31;94142.06;4972199;28;20263;-83
2023/06/13 04:58:52;;;;;;;12.93;8.18;;;;;;;20.69;79.39;94138.38;4972318;28;20230;-85
2023/06/13 05:01:21;;;;;;;14.48;9.48;;;;;;;21.50;76.33;94137.72;4972889;28;20210;-84
2023/06/13 05:03:49;;;;;;;15.20;10.07;;;;;;;21.83;76.38;94133.44;4972927;28;20573;-87
2023/06/13 05:06:16;;;;;;;19.45;11.00;;;;;;;22.14;71.93;94139.78;4972733;28;20220;-86
2023/06/13 05:08:43;;;;;;;14.20;10.90;;;;;;;22.13;71.39;94142.97;4972220;28;20276;-85
2023/06/13 05:11:10;;;;;;;15.45;11.02;;;;;;;22.17;72.30;94151.97;4970650;28;20536;-83
2023/06/13 05:13:36;;;;;;;20.25;12.40;;;;;;;22.55;73.30;94147.91;4971607;28;20210;-83
2023/06/13 05:16:04;;;;;;;17.45;11.98;;;;;;;24.26;69.41;94139.53;4971980;28;20272;-82
2023/06/13 05:18:33;;;;;;;15.73;11.68;;;;;;;25.12;61.90;94136.44;4971770;28;20214;-83
2023/06/13 05:21:00;;;;;;;23.00;13.35;;;;;;;26.06;61.25;94128.09;4971140;28;20206;-82
2023/06/13 05:23:28;;;;;;;21.17;12.27;;;;;;;26.28;58.04;94129.06;4971827;28;20661;-82
2023/06/13 05:25:55;;;;;;;14.70;11.90;;;;;;;26.25;59.73;94124.34;4971795;28;21019;-81
2023/06/13 05:28:21;;;;;;;13.23;10.88;;;;;;;25.89;58.18;94135.69;4971775;28;20210;-85
2023/06/13 05:30:51;;;;;;;11.68;10.23;;;;;;;25.68;58.07;94130.72;4958502;28;20206;-83
2023/06/13 05:33:18;;;;;;;14.48;9.70;;;;;;;25.98;57.11;94132.25;4971372;28;20705;-85
2023/06/13 05:35:46;;;;;;;14.23;10.57;;;;;;;25.65;58.34;94139.91;4971500;28;20559;-83
2023/06/13 05:38:14;;;;;;;15.70;10.82;;;;;;;27.07;55.58;94138.63;4971568;28;20253;-81
2023/06/13 05:40:41;;;;;;;11.15;9.45;;;;;;;26.88;54.82;94132.81;4971273;28;20220;-80
2023/06/13 05:43:08;;;;;;;15.95;10.60;;;;;;;28.59;52.43;94129.81;4970679;28;20210;-82
2023/06/13 05:45:35;;;;;;;14.85;11.77;;;;;;;27.35;52.47;94132.13;4971708;28;20214;-79
2023/06/13 05:48:01;;;;;;;12.95;9.98;;;;;;;27.93;53.33;94126.22;4970380;28;20257;-82
2023/06/13 05:50:28;;;;;;;12.70;10.18;;;;;;;26.09;55.78;94130.78;4971196;28;20215;-81
2023/06/13 05:52:56;;;;;;;10.82;9.35;;;;;;;25.92;58.11;94148.69;4971297;28;20214;-83
2023/06/13 05:55:23;;;;;;;11.30;8.73;;;;;;;26.19;56.72;94142.78;4958029;28;20214;-81
2023/06/13 05:57:51;;;;;;;13.05;8.60;;;;;;;26.28;56.78;94142.16;4971035;28;20665;-81
2023/06/13 06:00:18;;;;;;;13.43;8.15;;;;;;;26.98;56.24;94146.88;4967563;28;20694;-86
2023/06/13 06:02:46;;;;;;;9.10;7.47;;;;;;;26.49;54.42;94145.13;4970342;28;20744;-82
2023/06/13 06:05:14;;;;;;;9.82;7.60;;;;;;;25.94;57.22;94143.50;4971126;28;20304;-85
2023/06/13 06:07:42;;;;;;;13.10;7.43;;;;;;;26.18;57.42;94141.22;4971620;28;20316;-81
2023/06/13 06:10:11;;;;;;;10.93;7.43;;;;;;;26.79;54.82;94131.91;4964107;28;20688;-84
2023/06/13 06:12:38;;;;;;;12.02;6.68;;;;;;;26.29;56.04;94136.19;4970182;28;20260;-83
2023/06/13 06:15:06;;;;;;;8.63;6.18;;;;;;;25.13;55.97;94151.88;4970430;28;20218;-79
2023/06/13 06:17:33;;;;;;;7.13;5.90;;;;;;;26.04;55.10;94142.41;4970330;28;20265;-80
2023/06/13 06:19:59;;;;;;;6.40;4.93;;;;;;;28.59;48.88;94129.81;4969731;28;20234;-79
2023/06/13 06:22:26;;;;;;;5.20;4.70;;;;;;;29.99;45.64;94129.41;4970976;28;20217;-78
2023/06/13 06:24:53;;;;;;;5.20;4.60;;;;;;;30.92;44.05;94126.81;4970831;28;20604;-79
2023/06/13 06:27:21;;;;;;;5.38;4.57;;;;;;;32.00;41.07;94128.75;4970302;28;20737;-79
2023/06/13 06:29:48;;;;;;;7.38;4.90;;;;;;;32.24;40.41;94126.75;4961667;28;20289;-79
2023/06/13 06:32:15;;;;;;;6.05;4.57;;;;;;;30.90;42.66;94134.88;4965793;28;20218;-81
2023/06/13 06:34:42;;;;;;;5.93;4.68;;;;;;;31.04;43.23;94125.81;4970509;28;20214;-79
2023/06/13 06:37:09;;;;;;;7.13;4.90;;;;;;;30.52;44.50;94126.25;4970242;28;20210;-81
2023/06/13 06:39:36;;;;;;;6.88;4.97;;;;;;;30.81;45.13;94126.53;4969819;28;20245;-80
2023/06/13 06:42:02;;;;;;;8.15;5.68;;;;;;;30.77;42.81;94125.13;4970392;28;20665;-77
2023/06/13 06:44:31;;;;;;;7.32;5.22;;;;;;;31.03;42.41;94115.88;4970921;28;20211;-78
2023/06/13 06:46:57;;;;;;;5.88;5.28;;;;;;;30.18;42.81;94125.38;4970111;28;20234;-78
2023/06/13 06:49:24;;;;;;;6.78;5.47;;;;;;;29.55;44.48;94126.84;4969860;28;20657;-79
2023/06/13 06:51:51;;;;;;;5.97;5.47;;;;;;;28.74;46.80;94128.03;4970241;28;20261;-77
2023/06/13 06:54:17;;;;;;;7.07;5.00;;;;;;;29.13;48.62;94134.91;4961412;28;20251;-78
2023/06/13 06:56:44;;;;;;;8.10;5.45;;;;;;;28.41;46.97;94126.94;4967070;28;20304;-79
2023/06/13 06:59:11;;;;;;;6.70;4.80;;;;;;;26.46;51.74;94139.66;4969927;28;20234;-79
2023/06/13 07:01:39;;;;;;;6.18;4.90;;;;;;;25.33;55.60;94138.69;4966149;28;20613;-80
2023/06/13 07:04:06;;;;;;;6.20;4.97;;;;;;;24.59;57.38;94145.97;4962204;28;20542;-79
2023/06/13 07:06:33;;;;;;;6.57;5.50;;;;;;;24.58;57.66;94145.19;4970462;28;20235;-81
2023/06/13 07:09:00;;;;;;;6.68;5.45;;;;;;;24.54;60.17;94154.75;4970466;28;20648;-81
2023/06/13 07:11:27;;;;;;;6.93;5.95;;;;;;;23.94;60.50;94148.44;4970354;28;20225;-80
2023/06/13 07:13:54;;;;;;;9.82;5.70;;;;;;;24.35;60.90;94145.25;4970454;28;20218;-82
2023/06/13 07:16:21;;;;;;;7.78;6.15;;;;;;;25.43;57.23;94132.09;4970382;28;20306;-81
2023/06/13 07:18:51;;;;;;;8.63;5.88;;;;;;;25.96;56.13;94132.72;4970203;28;20729;-81
2023/06/13 07:21:18;;;;;;;8.30;5.78;;;;;;;25.66;56.25;94122.03;4970039;28;20704;-80
2023/06/13 07:23:45;;;;;;;6.95;5.30;;;;;;;25.84;57.18;94133.44;4969621;28;20274;-81
2023/06/13 07:26:12;;;;;;;6.53;5.63;;;;;;;25.05;57.29;94134.63;4970095;28;20214;-80
2023/06/13 07:28:39;;;;;;;8.65;5.60;;;;;;;24.19;60.47;94129.34;4970179;28;20317;-85
2023/06/13 07:31:06;;;;;;;8.18;5.75;;;;;;;24.16;61.41;94124.69;4969938;28;20210;-79
2023/06/13 07:33:32;;;;;;;10.82;5.45;;;;;;;25.04;59.15;94121.19;4969815;28;20207;-81
2023/06/13 07:36:00;;;;;;;6.50;5.20;;;;;;;24.80;58.89;94129.63;4969266;28;20261;-81
2023/06/13 07:38:27;;;;;;;8.07;5.15;;;;;;;24.21;60.16;94131.69;4969593;28;20613;-79
2023/06/13 07:40:54;;;;;;;5.57;4.85;;;;;;;23.86;61.76;94133.97;4969576;28;20214;-80
2023/06/13 07:43:21;;;;;;;6.07;4.93;;;;;;;23.56;62.92;94131.38;4971622;28;20207;-80
2023/06/13 07:45:48;;;;;;;6.53;4.88;;;;;;;23.44;63.83;94124.44;4973781;28;20214;-80
2023/06/13 07:48:15;;;;;;;9.00;5.03;;;;;;;23.88;62.78;94131.56;4961406;28;20266;-79
2023/06/13 07:50:42;;;;;;;7.85;5.10;;;;;;;23.47;63.88;94128.34;4972953;28;20217;-79
2023/06/13 07:53:10;;;;;;;6.50;5.05;;;;;;;23.00;64.21;94129.13;4974156;28;20293;-79
2023/06/13 07:55:37;;;;;;;7.43;5.07;;;;;;;23.36;64.19;94128.53;4973663;28;20210;-80
2023/06/13 07:58:04;;;;;;;7.05;5.25;;;;;;;22.86;65.25;94128.56;4973486;28;20214;-80
2023/06/13 08:00:31;;;;;;;7.45;5.57;;;;;;;22.81;65.72;94131.81;4972967;28;20301;-80
2023/06/13 08:02:58;;;;;;;6.55;5.60;;;;;;;22.34;68.75;94131.66;4960415;28;20239;-80
2023/06/13 08:05:26;;;;;;;9.15;5.28;;;;;;;22.13;69.38;94138.25;4973435;28;20267;-80
2023/06/13 08:07:53;;;;;;;9.55;5.45;;;;;;;21.76;70.86;94135.47;4973290;28;20318;-79
2023/06/13 08:10:21;;;;;;;9.30;6.15;;;;;;;21.69;70.85;94141.88;4973224;28;20210;-81
2023/06/13 08:12:48;;;;;;;8.65;6.10;;;;;;;21.75;70.92;94128.41;4973430;28;20268;-79
2023/06/13 08:15:15;;;;;;;10.70;6.85;;;;;;;21.40;70.50;94132.31;4973351;28;20301;-76
2023/06/13 08:17:42;;;;;;;8.88;7.63;;;;;;;21.00;72.65;94136.59;4960396;28;20242;-78
2023/06/13 08:20:09;;;;;;;8.10;7.30;;;;;;;21.08;73.67;94129.81;4972893;28;20273;-80
2023/06/13 08:22:38;;;;;;;12.98;8.82;;;;;;;20.95;74.99;94143.28;4971100;28;20256;-79
2023/06/13 08:25:07;;;;;;;12.00;9.82;;;;;;;20.90;77.06;94141.00;4962573;28;20272;-81
2023/06/13 08:27:36;;;;;;;12.82;9.85;;;;;;;20.87;78.43;94136.28;4973409;28;20241;-80
2023/06/13 08:30:04;;;;;;;13.40;11.18;;;;;;;20.60;79.70;94146.31;4973279;28;20302;-79
2023/06/13 08:32:32;;;;;;;14.98;10.38;;;;;;;20.55;80.93;94140.03;4973282;28;20233;-82
2023/06/13 08:34:59;;;;;;;18.73;12.25;;;;;;;20.44;82.93;94136.56;4972925;28;20297;-83
2023/06/13 08:37:26;;;;;;;16.85;11.50;;;;;;;20.54;83.54;94129.44;4973249;28;20673;-83
2023/06/13 08:39:53;;;;;;;15.32;10.25;;;;;;;20.79;85.79;94134.75;4973905;28;20218;-84
2023/06/13 08:42:20;;;;;;;11.88;8.65;;;;;;;20.89;82.30;94133.91;4960553;28;20214;-85
2023/06/13 08:44:49;;;;;;;20.90;9.68;;;;;;;20.89;82.10;94128.41;4972716;28;20206;-84
2023/06/13 08:47:18;;;;;;;13.00;9.52;;;;;;;21.03;81.64;94122.78;4971722;28;20297;-83
2023/06/13 08:49:47;;;;;;;16.10;10.05;;;;;;;20.94;81.85;94136.22;4971960;28;20734;-84
2023/06/13 08:52:14;;;;;;;17.20;10.85;;;;;;;20.82;83.24;94134.75;4971633;28;20218;-84
2023/06/13 08:54:43;;;;;;;16.52;12.20;;;;;;;20.52;82.36;94132.59;4973028;28;20202;-86
2023/06/13 08:57:15;;;;;;;11.93;8.52;;;;;;;20.40;83.83;94132.28;4973508;28;20217;-81
2023/06/13 08:59:44;;;;;;;9.45;6.88;;;;;;;19.81;85.35;94143.94;4972330;28;20606;-81
2023/06/13 09:02:18;;;;;;;9.45;6.63;;;;;;;20.10;87.63;94152.03;4972429;28;20210;-82
2023/06/13 09:04:48;;;;;;;10.77;7.50;;;;;;;20.34;87.66;94153.91;4972699;28;20211;-81
2023/06/13 09:07:16;;;;;;;6.80;6.10;;;;;;;19.91;86.98;94147.03;4971925;28;20211;-80
2023/06/13 09:09:43;;;;;;;9.73;6.00;;;;;;;19.90;88.86;94142.72;4972432;28;20627;-82
2023/06/13 09:12:13;;;;;;;10.88;7.35;;;;;;;20.21;88.52;94141.78;4972320;28;20257;-85
2023/06/13 09:14:40;;;;;;;11.13;7.40;;;;;;;20.24;90.02;94143.72;4971927;28;20621;-83
2023/06/13 09:17:08;;;;;;;8.15;5.53;;;;;;;20.36;86.54;94146.06;4972023;28;20302;-82
2023/06/13 09:19:36;;;;;;;7.47;4.72;;;;;;;20.34;84.18;94137.41;4972142;28;20214;-84
2023/06/13 09:22:03;;;;;;;7.65;4.82;;;;;;;20.40;82.35;94141.31;4960296;28;20203;-84
2023/06/13 09:24:32;;;;;;;5.90;4.75;;;;;;;20.22;83.25;94144.16;4971223;28;20218;-83
2023/06/13 09:27:01;;;;;;;12.82;5.38;;;;;;;20.89;81.93;94133.91;4971706;28;20214;-83
2023/06/13 09:29:33;;;;;;;8.05;6.05;;;;;;;21.23;81.95;94131.28;4971960;28;20446;-81
2023/06/13 09:31:59;;;;;;;7.95;5.65;;;;;;;21.67;82.84;94138.72;4971602;28;20206;-82
2023/06/13 09:34:28;;;;;;;6.68;4.72;;;;;;;21.63;79.18;94138.75;4971804;28;20609;-82
2023/06/13 09:36:59;;;;;;;6.70;5.60;;;;;;;21.36;78.82;94131.56;4971091;28;20218;-82
2023/06/13 09:39:27;;;;;;;6.15;5.47;;;;;;;21.43;79.69;94142.53;4961238;28;20225;-81
2023/06/13 09:41:56;;;;;;;9.13;5.18;;;;;;;21.37;78.45;94136.66;4970698;28;20214;-80
2023/06/13 09:44:24;;;;;;;7.78;5.45;;;;;;;21.24;76.33;94136.41;4961527;28;20206;-80
2023/06/13 09:46:51;;;;;;;8.00;5.63;;;;;;;21.72;74.79;94141.06;4972071;28;20206;-80
2023/06/13 09:49:19;;;;;;;6.40;4.90;;;;;;;21.58;73.41;94144.75;4972342;28;20245;-81
2023/06/13 09:51:46;;;;;;;8.15;5.15;;;;;;;21.13;76.08;94132.94;4971942;28;20206;-81
2023/06/13 09:54:15;;;;;;;6.93;4.80;;;;;;;21.30;75.16;94130.47;4971159;28;20207;-79
2023/06/13 09:56:43;;;;;;;6.13;5.28;;;;;;;21.78;74.57;94128.38;4971661;28;20217;-79
2023/06/13 09:59:17;;;;;;;7.85;4.82;;;;;;;21.92;72.61;94132.94;4970619;28;20242;-79
2023/06/13 10:01:47;;;;;;;7.07;5.20;;;;;;;22.13;71.57;94120.91;4971480;28;20248;-79
2023/06/13 10:04:13;;;;;;;11.45;6.63;;;;;;;21.77;73.01;94132.31;4971902;28;20237;-79
2023/06/13 10:06:40;;;;;;;9.43;6.38;;;;;;;21.74;74.91;94122.09;4971524;28;20206;-80
2023/06/13 10:09:07;;;;;;;10.27;6.43;;;;;;;21.53;75.07;94122.34;4971340;28;20238;-80
2023/06/13 10:11:38;;;;;;;9.52;6.90;;;;;;;21.87;75.02;94114.06;4970846;28;20290;-78
2023/06/13 10:14:08;;;;;;;8.35;7.30;;;;;;;21.85;74.46;94122.78;4971843;28;20654;-80
2023/06/13 10:16:39;;;;;;;9.65;6.40;;;;;;;21.66;74.32;94123.38;4972013;28;20214;-80
2023/06/13 10:19:06;;;;;;;10.02;6.50;;;;;;;21.76;75.00;94130.75;4971765;28;20199;-79
2023/06/13 10:21:34;;;;;;;11.48;6.10;;;;;;;21.94;76.91;94130.56;4971110;28;20570;-79
2023/06/13 10:24:03;;;;;;;12.65;6.15;;;;;;;22.08;74.40;94124.88;4971343;28;20740;-79
2023/06/13 10:26:36;;;;;;;7.07;5.03;;;;;;;22.01;73.67;94122.22;4971698;28;20238;-80
2023/06/13 10:29:35;;;;;;;10.50;7.18;;;;;;;21.73;75.27;94115.03;4971697;28;20221;-79
2023/06/13 10:32:22;;;;;;;8.02;5.53;;;;;;;21.97;76.96;94115.94;4971033;28;20255;-79
2023/06/13 10:35:09;;;;;;;9.82;6.53;;;;;;;21.96;74.62;94117.91;4960791;28;20210;-79
2023/06/13 10:38:07;;;;;;;9.25;7.00;;;;;;;21.81;74.52;94116.53;4971082;28;20210;-80
2023/06/13 10:40:57;;;;;;;10.40;6.55;;;;;;;21.94;73.28;94117.53;4971178;28;20217;-79
2023/06/13 10:43:33;;;;;;;7.40;6.55;;;;;;;22.49;71.58;94110.16;4970136;28;20649;-79
2023/06/13 10:46:05;;;;;;;7.93;6.18;;;;;;;22.58;70.63;94119.47;4958476;28;20210;-79
2023/06/13 10:48:35;;;;;;;7.63;5.22;;;;;;;22.50;70.71;94118.03;4969131;28;20221;-79
2023/06/13 10:51:02;;;;;;;7.55;5.47;;;;;;;22.34;70.66;94109.56;4960135;28;20206;-78
2023/06/13 10:53:31;;;;;;;9.90;6.45;;;;;;;22.28;69.66;94111.22;4971501;28;20206;-79
2023/06/13 10:56:02;;;;;;;8.32;4.72;;;;;;;22.70;69.02;94094.03;4971002;28;21057;-78
2023/06/13 10:58:31;;;;;;;9.18;5.07;;;;;;;23.22;67.47;94093.63;4969475;28;20222;-79
2023/06/13 11:01:03;;;;;;;8.88;5.25;;;;;;;23.09;66.20;94097.44;4970449;28;20210;-76
2023/06/13 11:03:31;;;;;;;7.93;5.43;;;;;;;23.33;67.05;94097.00;4970438;28;20206;-79
2023/06/13 11:06:05;;;;;;;6.47;5.22;;;;;;;23.29;64.35;94085.22;4970298;28;20341;-78
2023/06/13 11:08:33;;;;;;;9.05;5.47;;;;;;;23.56;65.17;94098.97;4970244;28;20226;-78
2023/06/13 11:11:03;;;;;;;7.15;5.68;;;;;;;22.90;66.62;94096.16;4969991;28;20749;-78
2023/06/13 11:13:35;;;;;;;11.23;4.88;;;;;;;22.89;66.40;94100.09;4970420;28;20206;-78
2023/06/13 11:16:18;;;;;;;7.25;5.80;;;;;;;23.22;65.68;94099.16;4956592;28;20199;-77
2023/06/13 11:18:47;;;;;;;9.48;5.68;;;;;;;23.45;65.58;94097.56;4971837;28;20194;-79
2023/06/13 11:21:14;;;;;;;7.90;6.18;;;;;;;23.45;65.83;94094.81;4973337;28;20257;-78
2023/06/13 11:23:54;;;;;;;6.82;5.78;;;;;;;23.62;66.47;94096.50;4973397;28;20265;-79
2023/06/13 11:26:21;;;;;;;6.90;5.82;;;;;;;23.83;64.19;94089.78;4961525;28;20210;-77
2023/06/13 11:28:51;;;;;;;9.15;5.72;;;;;;;24.15;63.72;94081.59;4973877;28;20238;-79
2023/06/13 11:31:18;;;;;;;12.48;7.30;;;;;;;24.46;62.92;94087.69;4973867;28;20508;-78
2023/06/13 11:33:47;;;;;;;8.80;6.57;;;;;;;23.75;64.48;94083.59;4973579;28;20210;-75
2023/06/13 11:36:15;;;;;;;12.20;7.18;;;;;;;23.80;64.83;94096.94;4973174;28;20210;-76
2023/06/13 11:38:45;;;;;;;7.28;5.95;;;;;;;23.78;66.45;94102.09;4960715;28;20215;-80
2023/06/13 11:41:12;;;;;;;9.18;6.20;;;;;;;23.55;65.66;94096.63;4973338;28;20206;-75
2023/06/13 11:43:39;;;;;;;8.82;6.28;;;;;;;22.93;67.97;94103.59;4973777;28;20242;-78
2023/06/13 11:46:07;;;;;;;6.72;6.03;;;;;;;22.57;65.97;94095.81;4966933;28;20254;-76